Time;durP1;ratioP1;P1;durP2;ratioP2;P2;SDS_P1;SDS_P2;PMS_P1;PMS_P2;Temp;Humidity;BMP_temperature;BMP_pressure;BME280_temperature;BME280_humidity;BME280_pressure;Samples;Min_cycle;Max_cycle;Signal;HPM_P1;HPM_P2
2024/03/25 00:01:09;;;;;;;4.65;2.33;;;;;;;6.97;59.57;94426.91;6187962;23;20055;-90
2024/03/25 00:03:35;;;;;;;3.38;2.20;;;;;;;6.94;59.94;94440.16;6163185;23;20020;-89
2024/03/25 00:06:00;;;;;;;3.13;1.75;;;;;;;6.93;59.69;94430.81;6163490;23;20012;-89
2024/03/25 00:08:26;;;;;;;3.10;2.20;;;;;;;6.91;59.99;94426.78;6170468;23;20019;-89
2024/03/25 00:10:51;;;;;;;4.85;2.20;;;;;;;6.98;59.88;94433.66;6180418;23;20047;-89
2024/03/25 00:13:17;;;;;;;4.78;2.45;;;;;;;6.81;60.15;94421.84;6163904;23;20019;-89
2024/03/25 00:15:43;;;;;;;5.53;2.55;;;;;;;6.82;60.91;94431.22;6140382;23;20040;-89
2024/03/25 00:18:11;;;;;;;4.88;2.08;;;;;;;7.08;59.50;94432.63;6189114;23;20008;-89
2024/03/25 00:20:36;;;;;;;6.22;2.65;;;;;;;6.63;60.74;94428.13;6165300;23;20004;-89
2024/03/25 00:23:04;;;;;;;4.63;2.33;;;;;;;6.64;61.16;94432.34;6165057;23;20064;-89
2024/03/25 00:25:30;;;;;;;3.40;2.40;;;;;;;6.82;59.78;94423.47;6164893;23;20004;-89
2024/03/25 00:27:56;;;;;;;4.88;2.40;;;;;;;6.79;59.80;94421.22;6189439;23;20028;-88
2024/03/25 00:30:22;;;;;;;4.25;2.40;;;;;;;6.76;60.06;94426.72;6140708;23;20012;-89
2024/03/25 00:32:47;;;;;;;3.72;2.53;;;;;;;6.40;61.12;94414.41;6164817;23;20016;-89
2024/03/25 00:35:13;;;;;;;5.22;2.60;;;;;;;6.30;61.21;94424.13;6189584;23;20040;-89
2024/03/25 00:37:38;;;;;;;5.75;2.40;;;;;;;6.46;60.07;94414.50;6140277;23;20011;-88
2024/03/25 00:40:04;;;;;;;4.18;2.50;;;;;;;6.33;60.76;94429.78;6164223;23;20005;-89
2024/03/25 00:42:30;;;;;;;6.72;2.40;;;;;;;6.17;60.68;94424.69;6164162;23;20008;-88
2024/03/25 00:44:55;;;;;;;4.85;2.50;;;;;;;6.12;61.17;94416.66;6189397;23;20035;-87
2024/03/25 00:47:21;;;;;;;3.55;2.30;;;;;;;6.25;61.21;94425.47;6188910;23;20004;-89
2024/03/25 00:49:49;;;;;;;5.05;2.45;;;;;;;6.10;61.35;94429.75;6141083;23;20040;-88
2024/03/25 00:52:14;;;;;;;5.85;2.55;;;;;;;5.93;61.89;94420.44;6164518;23;20016;-88
2024/03/25 00:54:40;;;;;;;5.85;2.50;;;;;;;5.99;60.54;94412.03;6163934;23;20001;-90
2024/03/25 00:57:07;;;;;;;4.72;2.60;;;;;;;6.07;60.41;94417.16;6188707;23;20012;-89
2024/03/25 00:59:33;;;;;;;4.75;2.20;;;;;;;5.86;60.31;94415.94;6140181;23;20019;-89
2024/03/25 01:01:59;;;;;;;6.78;2.70;;;;;;;5.54;61.40;94398.00;6189244;23;20008;-89
2024/03/25 01:04:24;;;;;;;6.60;2.50;;;;;;;5.73;60.29;94405.38;6164838;23;20008;-89
2024/03/25 01:06:50;;;;;;;4.43;2.72;;;;;;;5.63;60.70;94407.31;6164388;23;20069;-88
2024/03/25 01:09:19;;;;;;;5.65;2.88;;;;;;;5.62;60.89;94403.16;6164051;23;20012;-89
2024/03/25 01:11:44;;;;;;;4.75;2.65;;;;;;;5.63;60.60;94397.00;6188901;23;20015;-87
2024/03/25 01:14:13;;;;;;;8.45;3.20;;;;;;;5.08;62.48;94381.38;6141221;23;20015;-89
2024/03/25 01:16:39;;;;;;;7.00;3.00;;;;;;;5.09;62.67;94398.44;6188784;23;20012;-90
2024/03/25 01:19:04;;;;;;;6.63;2.78;;;;;;;5.55;60.79;94395.25;6164137;23;20011;-88
2024/03/25 01:21:34;;;;;;;3.55;2.53;;;;;;;5.36;61.52;94393.88;6140497;23;20008;-89
2024/03/25 01:24:00;;;;;;;4.68;2.72;;;;;;;5.18;62.52;94390.69;6140464;23;20044;-88
2024/03/25 01:26:25;;;;;;;8.00;3.15;;;;;;;5.69;60.46;94386.00;6164190;23;20008;-89
2024/03/25 01:28:51;;;;;;;5.57;3.10;;;;;;;5.27;61.72;94372.47;6164490;23;20013;-88
2024/03/25 01:31:16;;;;;;;5.65;3.00;;;;;;;5.11;62.79;94375.06;6139492;23;20012;-88
2024/03/25 01:33:42;;;;;;;5.20;3.25;;;;;;;4.97;63.08;94376.56;6139886;23;20126;-87
2024/03/25 01:36:07;;;;;;;4.88;2.85;;;;;;;5.32;62.43;94371.16;6164318;23;20086;-89
2024/03/25 01:38:33;;;;;;;4.03;2.97;;;;;;;5.24;62.76;94362.47;6163331;23;20009;-88
2024/03/25 01:41:12;;;;;;;4.32;2.90;;;;;;;5.29;62.41;94367.13;6162287;23;20013;-88
2024/03/25 01:43:38;;;;;;;6.07;3.10;;;;;;;5.24;62.89;94346.22;6188139;23;20028;-89
2024/03/25 01:46:08;;;;;;;4.47;2.80;;;;;;;5.40;62.02;94359.03;6165475;23;20008;-89
2024/03/25 01:48:34;;;;;;;5.43;2.80;;;;;;;5.38;61.99;94350.66;6199035;23;20004;-89
2024/03/25 01:51:00;;;;;;;5.13;2.95;;;;;;;5.56;62.11;94354.78;6138919;23;20043;-88
2024/03/25 01:53:31;;;;;;;3.63;2.70;;;;;;;5.31;62.91;94351.50;6164232;23;20005;-88
2024/03/25 01:55:59;;;;;;;5.03;2.90;;;;;;;5.47;62.53;94349.66;6189093;23;20005;-88
2024/03/25 01:58:29;;;;;;;3.95;2.90;;;;;;;5.77;61.63;94347.28;6163664;23;20079;-88
2024/03/25 02:00:55;;;;;;;4.47;2.90;;;;;;;5.65;61.93;94336.53;6140045;23;20036;-88
2024/03/25 02:03:24;;;;;;;5.05;2.80;;;;;;;5.70;62.04;94336.03;6163923;23;20269;-88
2024/03/25 02:05:57;;;;;;;4.00;3.05;;;;;;;5.48;62.53;94332.41;6188945;23;20004;-88
2024/03/25 02:08:26;;;;;;;4.18;2.60;;;;;;;5.53;62.70;94313.88;6188577;23;20008;-88
2024/03/25 02:10:54;;;;;;;4.95;2.58;;;;;;;5.76;61.40;94319.06;6188585;23;20015;-88
2024/03/25 02:13:19;;;;;;;4.22;2.50;;;;;;;5.65;61.99;94317.66;6188564;23;20009;-88
2024/03/25 02:15:45;;;;;;;4.00;2.70;;;;;;;5.83;61.45;94307.91;6163917;23;20008;-88
2024/03/25 02:18:10;;;;;;;3.22;2.30;;;;;;;5.84;61.26;94306.91;6182433;23;20034;-89
2024/03/25 02:20:36;;;;;;;3.30;2.20;;;;;;;6.05;60.80;94313.25;6163417;23;19996;-89
2024/03/25 02:23:02;;;;;;;4.15;2.50;;;;;;;5.92;61.16;94302.66;6139425;23;20059;-88
2024/03/25 02:25:32;;;;;;;3.78;2.38;;;;;;;6.13;60.52;94295.16;6188935;23;20133;-88
2024/03/25 02:27:57;;;;;;;3.08;2.03;;;;;;;6.04;60.70;94291.03;6164545;23;20066;-88
2024/03/25 02:30:23;;;;;;;2.78;2.10;;;;;;;5.82;60.81;94283.06;6138854;23;20009;-88
2024/03/25 02:32:50;;;;;;;2.25;1.80;;;;;;;5.74;61.11;94282.31;6163440;23;20013;-88
2024/03/25 02:35:19;;;;;;;2.08;1.70;;;;;;;5.57;61.33;94284.19;6188136;23;20009;-88
2024/03/25 02:37:45;;;;;;;2.45;2.10;;;;;;;5.87;60.99;94275.59;6164504;23;20001;-89
2024/03/25 02:40:11;;;;;;;2.85;1.92;;;;;;;5.86;61.08;94275.78;6188454;23;20005;-88
2024/03/25 02:42:39;;;;;;;2.58;2.13;;;;;;;5.99;60.57;94259.75;6188553;23;20040;-89
2024/03/25 02:45:08;;;;;;;2.50;1.98;;;;;;;6.11;60.65;94275.63;6162460;23;20023;-89
2024/03/25 02:47:34;;;;;;;3.67;1.98;;;;;;;5.99;61.25;94277.81;6161718;23;20040;-88
2024/03/25 02:49:59;;;;;;;4.72;2.20;;;;;;;6.17;60.42;94267.19;6161301;23;20059;-89
2024/03/25 02:52:26;;;;;;;2.38;2.17;;;;;;;6.45;60.16;94277.78;6161810;23;20012;-89
2024/03/25 02:54:57;;;;;;;4.35;2.70;;;;;;;6.23;61.38;94282.81;6163283;23;20019;-89
2024/03/25 02:57:22;;;;;;;5.07;3.30;;;;;;;6.31;60.74;94273.38;6164234;23;20008;-89
2024/03/25 02:59:48;;;;;;;4.53;3.00;;;;;;;6.34;60.55;94283.34;6163595;23;20015;-88
2024/03/25 03:02:13;;;;;;;4.97;3.15;;;;;;;5.69;62.28;94267.31;6187920;23;20079;-89
2024/03/25 03:04:39;;;;;;;6.03;2.97;;;;;;;5.78;62.24;94271.47;6163780;23;20008;-89
2024/03/25 03:07:05;;;;;;;3.35;2.78;;;;;;;5.70;62.27;94278.47;6139002;23;20008;-87
2024/03/25 03:09:30;;;;;;;4.57;2.88;;;;;;;5.34;63.20;94268.66;6163802;23;20031;-89
2024/03/25 03:11:56;;;;;;;5.00;2.60;;;;;;;5.42;62.79;94274.56;6163243;23;20040;-88
2024/03/25 03:14:21;;;;;;;4.80;3.13;;;;;;;5.40;63.25;94276.50;6163726;23;20015;-89
2024/03/25 03:16:47;;;;;;;5.80;3.28;;;;;;;5.26;63.10;94272.09;6187601;23;20020;-88
2024/03/25 03:19:12;;;;;;;5.00;3.30;;;;;;;5.33;63.43;94275.59;6187999;23;20035;-88
2024/03/25 03:21:37;;;;;;;5.35;3.03;;;;;;;5.34;63.06;94289.28;6163635;23;20004;-88
2024/03/25 03:24:06;;;;;;;3.75;2.80;;;;;;;5.37;62.67;94268.31;6163950;23;20003;-89
2024/03/25 03:26:31;;;;;;;5.53;2.63;;;;;;;5.54;62.37;94280.19;6138859;23;20004;-89
2024/03/25 03:28:57;;;;;;;7.22;3.00;;;;;;;5.57;62.26;94271.28;6163463;23;20012;-87
2024/03/25 03:31:23;;;;;;;3.70;2.80;;;;;;;5.51;62.46;94259.06;6186387;23;20043;-89
2024/03/25 03:33:53;;;;;;;4.15;2.72;;;;;;;5.56;62.84;94259.34;6136963;23;20016;-88
2024/03/25 03:36:19;;;;;;;5.03;2.85;;;;;;;5.80;61.70;94269.50;6188204;23;20007;-88
2024/03/25 03:38:45;;;;;;;5.65;2.92;;;;;;;5.87;62.14;94269.66;6188170;23;20063;-88
2024/03/25 03:41:11;;;;;;;5.45;3.00;;;;;;;5.77;62.24;94264.72;6163630;23;20008;-87
2024/03/25 03:43:36;;;;;;;6.25;3.20;;;;;;;5.90;61.84;94265.91;6187758;23;20064;-88
2024/03/25 03:46:02;;;;;;;5.90;3.00;;;;;;;5.78;62.44;94270.66;6188282;23;20001;-88
2024/03/25 03:48:28;;;;;;;4.90;2.90;;;;;;;5.93;61.80;94268.16;6188832;23;20035;-88
2024/03/25 03:50:54;;;;;;;4.28;2.78;;;;;;;6.00;61.70;94256.22;6189971;23;20028;-88
2024/03/25 03:53:19;;;;;;;3.97;2.35;;;;;;;6.18;61.22;94267.03;6140656;23;20001;-88
2024/03/25 03:55:59;;;;;;;3.88;2.50;;;;;;;5.98;61.58;94253.00;6140956;23;20008;-88
2024/03/25 03:58:25;;;;;;;3.33;2.60;;;;;;;5.77;62.61;94248.41;6189809;23;20004;-88
2024/03/25 04:00:51;;;;;;;4.40;2.50;;;;;;;6.03;61.70;94261.00;6189883;23;20009;-88
2024/03/25 04:03:17;;;;;;;5.70;2.50;;;;;;;6.13;61.27;94255.59;6189831;23;20043;-88
2024/03/25 04:05:42;;;;;;;3.80;2.47;;;;;;;6.12;61.22;94259.19;6165544;23;20043;-88
2024/03/25 04:08:11;;;;;;;4.13;2.80;;;;;;;6.19;60.66;94247.19;6189827;23;20019;-89
2024/03/25 04:10:37;;;;;;;3.97;2.65;;;;;;;6.22;61.15;94252.78;6165705;23;20008;-88
2024/03/25 04:15:36;;;;;;;5.60;2.88;;;;;;;5.82;61.36;94236.59;6212910;23;20036;-89
2024/03/25 04:18:02;;;;;;;4.63;2.90;;;;;;;5.85;61.68;94241.44;6164845;23;20016;-88
2024/03/25 04:20:31;;;;;;;4.10;2.72;;;;;;;5.87;61.49;94229.16;6189679;23;20022;-89
2024/03/25 04:22:56;;;;;;;4.10;2.70;;;;;;;6.07;61.05;94241.63;6190356;23;20005;-88
2024/03/25 04:25:22;;;;;;;3.85;2.90;;;;;;;6.13;60.67;94240.13;6189580;23;20007;-88
2024/03/25 04:27:48;;;;;;;3.92;2.45;;;;;;;6.16;60.45;94227.66;6164696;23;20091;-88
2024/03/25 04:30:17;;;;;;;4.00;2.65;;;;;;;6.06;60.51;94232.28;6189315;23;20013;-88
2024/03/25 04:32:42;;;;;;;5.10;2.53;;;;;;;6.03;60.86;94227.44;6164901;23;20009;-88
2024/03/25 04:35:10;;;;;;;3.50;2.50;;;;;;;6.03;60.68;94219.72;6188849;23;20001;-89
2024/03/25 04:37:35;;;;;;;4.90;2.40;;;;;;;5.90;60.61;94214.28;6164728;23;20008;-89
2024/03/25 04:40:04;;;;;;;5.95;3.03;;;;;;;6.06;60.15;94232.28;6189506;23;19997;-89
2024/03/25 04:42:29;;;;;;;4.82;2.50;;;;;;;5.95;60.14;94224.91;6189465;23;20005;-89
2024/03/25 04:44:55;;;;;;;5.57;2.60;;;;;;;5.90;60.68;94217.66;6164799;23;20008;-89
2024/03/25 04:47:20;;;;;;;5.80;2.80;;;;;;;5.73;60.80;94211.84;6164664;23;20031;-88
2024/03/25 04:49:46;;;;;;;4.75;2.42;;;;;;;5.70;60.55;94219.94;6164642;23;20028;-89
2024/03/25 04:52:18;;;;;;;3.05;2.30;;;;;;;5.60;60.77;94221.94;6189192;23;20119;-88
2024/03/25 04:54:44;;;;;;;4.00;2.33;;;;;;;5.76;60.02;94232.13;6166026;23;20016;-88
2024/03/25 04:57:09;;;;;;;5.45;2.40;;;;;;;5.68;60.82;94230.41;6164464;23;20013;-89
2024/03/25 04:59:37;;;;;;;3.47;2.50;;;;;;;5.64;60.53;94218.84;6164992;23;20017;-89
2024/03/25 05:02:03;;;;;;;6.40;2.60;;;;;;;5.59;60.36;94210.00;6190023;23;20004;-89
2024/03/25 05:04:31;;;;;;;3.10;2.38;;;;;;;5.75;60.15;94222.81;6189438;23;20007;-90
2024/03/25 05:09:21;;;;;;;5.10;2.67;;;;;;;5.75;60.04;94227.97;6210774;23;20051;-89
2024/03/25 05:11:47;;;;;;;3.65;2.65;;;;;;;5.70;60.58;94219.94;6164435;23;20046;-89
2024/03/25 05:14:12;;;;;;;3.70;2.45;;;;;;;5.81;60.38;94229.06;6164853;23;20004;-89
2024/03/25 05:16:38;;;;;;;3.90;2.30;;;;;;;5.86;59.94;94224.97;6139556;23;20013;-90
2024/03/25 05:19:04;;;;;;;5.03;2.78;;;;;;;5.73;60.80;94217.03;6139856;23;20013;-89
2024/03/25 05:21:30;;;;;;;5.93;2.70;;;;;;;5.86;60.43;94222.41;6163418;23;20115;-89
2024/03/25 05:23:56;;;;;;;4.15;2.47;;;;;;;5.83;60.32;94220.16;6161850;23;20012;-89
2024/03/25 05:26:21;;;;;;;4.28;2.63;;;;;;;5.66;60.70;94205.78;6187476;23;20034;-89
2024/03/25 05:28:52;;;;;;;3.88;2.60;;;;;;;5.84;60.19;94211.41;6163738;23;20009;-89
2024/03/25 05:31:18;;;;;;;3.47;2.40;;;;;;;5.91;60.16;94215.91;6188820;23;20013;-89
2024/03/25 05:33:43;;;;;;;4.60;2.42;;;;;;;5.66;60.49;94203.19;6163770;23;20013;-89
2024/03/25 05:36:09;;;;;;;5.07;2.75;;;;;;;5.61;60.58;94203.69;6188514;23;20018;-89
2024/03/25 05:38:35;;;;;;;3.38;2.30;;;;;;;5.74;59.99;94202.34;6163951;23;20009;-88
2024/03/25 05:41:00;;;;;;;5.10;2.60;;;;;;;5.98;59.58;94209.13;6163206;23;20065;-89
2024/03/25 05:43:28;;;;;;;2.67;2.03;;;;;;;5.85;59.48;94199.34;6164121;23;20099;-90
2024/03/25 05:45:54;;;;;;;4.28;2.65;;;;;;;5.98;59.63;94204.75;6140648;23;20023;-90
2024/03/25 05:48:26;;;;;;;7.60;2.63;;;;;;;5.92;59.12;94210.59;6163853;23;20008;-90
2024/03/25 05:51:02;;;;;;;4.13;2.50;;;;;;;5.60;60.60;94220.16;6164814;23;20096;-91
2024/03/25 05:53:28;;;;;;;5.13;2.40;;;;;;;5.99;59.12;94208.91;6189548;23;20009;-89
2024/03/25 05:55:54;;;;;;;4.93;2.90;;;;;;;5.93;58.78;94201.84;6188234;23;20008;-90
2024/03/25 05:58:20;;;;;;;4.38;2.00;;;;;;;5.75;59.61;94204.75;6187781;23;20088;-89
2024/03/25 06:00:49;;;;;;;3.22;1.98;;;;;;;5.71;59.89;94218.94;6163526;23;20068;-89
2024/03/25 06:03:15;;;;;;;3.60;2.03;;;;;;;6.11;59.12;94201.59;6163829;23;20004;-90
2024/03/25 06:05:41;;;;;;;2.38;1.60;;;;;;;7.20;56.46;94204.44;6187645;23;20009;-89
2024/03/25 06:08:07;;;;;;;3.33;1.75;;;;;;;8.48;53.58;94196.84;6163106;23;20105;-89
2024/03/25 06:10:40;;;;;;;2.42;1.30;;;;;;;9.17;50.50;94215.97;6188377;23;20063;-89
2024/03/25 06:13:05;;;;;;;2.92;1.30;;;;;;;10.44;47.13;94195.44;6197480;23;20001;-88
2024/03/25 06:15:32;;;;;;;2.55;1.20;;;;;;;11.32;45.06;94202.81;6141317;23;20047;-89
2024/03/25 06:18:00;;;;;;;1.58;1.20;;;;;;;12.02;43.42;94199.47;6188443;23;20000;-86
2024/03/25 06:20:26;;;;;;;2.08;1.02;;;;;;;11.97;43.65;94188.88;6188141;23;20054;-89
2024/03/25 06:22:51;;;;;;;2.55;1.30;;;;;;;13.06;41.17;94189.28;6162098;23;20005;-87
2024/03/25 06:25:17;;;;;;;2.75;1.15;;;;;;;13.83;39.70;94188.78;6187060;23;20042;-88
2024/03/25 06:27:44;;;;;;;2.10;1.30;;;;;;;13.35;38.74;94189.63;6186776;23;20087;-87
2024/03/25 06:35:38;;;;;;;2.95;1.35;;;;;;;14.90;36.32;94187.88;6189792;23;20094;-89
2024/03/25 06:38:03;;;;;;;3.35;1.42;;;;;;;15.47;35.65;94174.09;6186570;23;20008;-88
2024/03/25 06:40:33;;;;;;;3.22;1.50;;;;;;;15.52;35.03;94168.16;6186438;23;20084;-88
2024/03/25 06:42:58;;;;;;;3.10;1.40;;;;;;;15.35;35.60;94160.25;6185514;23;20013;-89
2024/03/25 06:45:24;;;;;;;2.55;1.40;;;;;;;15.04;36.53;94149.16;6161076;23;20012;-88
2024/03/25 06:58:02;;;;;;;2.53;1.40;;;;;;;16.95;33.70;94131.09;6202324;22;20020;-88
2024/03/25 07:00:30;;;;;;;1.83;1.13;;;;;;;16.88;31.93;94140.97;6161862;23;20013;-88
2024/03/25 07:02:55;;;;;;;1.63;1.10;;;;;;;15.93;33.91;94125.13;6137333;23;20070;-88
2024/03/25 07:07:46;;;;;;;2.33;1.30;;;;;;;15.56;34.31;94130.78;6181347;23;20082;-87
2024/03/25 07:10:12;;;;;;;1.85;1.30;;;;;;;15.72;34.10;94123.94;6136731;23;20008;-88
2024/03/25 07:12:37;;;;;;;2.83;1.52;;;;;;;15.03;35.22;94116.94;6161518;23;20060;-88
2024/03/25 07:15:03;;;;;;;3.17;1.70;;;;;;;14.23;37.04;94107.13;6135980;23;20017;-88
2024/03/25 07:17:28;;;;;;;2.92;1.90;;;;;;;14.40;36.86;94121.09;6160286;23;20008;-88
2024/03/25 07:19:54;;;;;;;2.35;1.70;;;;;;;15.47;35.20;94116.44;6175153;23;20017;-88
2024/03/25 07:22:19;;;;;;;2.42;1.50;;;;;;;16.51;32.88;94117.09;6186429;23;20008;-88
2024/03/25 07:24:45;;;;;;;2.20;1.60;;;;;;;14.87;34.20;94120.28;6138202;23;20024;-88
2024/03/25 07:27:11;;;;;;;3.80;1.55;;;;;;;15.97;34.40;94105.28;6163287;23;20058;-89
2024/03/25 07:29:36;;;;;;;3.78;1.40;;;;;;;16.14;35.37;94123.63;6139411;23;20013;-89
2024/03/25 07:32:02;;;;;;;3.67;1.40;;;;;;;15.71;36.80;94119.75;6163384;23;20071;-90
2024/03/25 07:34:29;;;;;;;1.70;1.20;;;;;;;16.17;34.41;94117.91;6137813;23;20096;-88
2024/03/25 07:36:57;;;;;;;1.95;1.25;;;;;;;15.59;37.16;94104.09;6163893;23;20091;-93
2024/03/25 07:39:24;;;;;;;2.78;1.40;;;;;;;16.77;34.76;94091.94;6138893;23;20009;-87
2024/03/25 07:41:49;;;;;;;3.00;1.30;;;;;;;16.34;35.68;94107.41;6163567;23;20000;-89
2024/03/25 07:44:15;;;;;;;2.72;1.45;;;;;;;17.04;33.84;94101.75;6187842;23;20008;-89
2024/03/25 07:46:40;;;;;;;1.70;1.30;;;;;;;16.96;35.08;94095.09;6138070;23;20013;-89
2024/03/25 07:49:05;;;;;;;1.92;1.10;;;;;;;17.48;34.11;94092.00;6163124;23;20004;-89
2024/03/25 07:51:35;;;;;;;2.15;1.23;;;;;;;18.43;31.99;94095.94;6163078;23;20013;-89
2024/03/25 07:56:26;;;;;;;1.73;1.10;;;;;;;19.24;31.04;94089.50;6208423;22;20028;-89
2024/03/25 07:58:51;;;;;;;1.67;1.20;;;;;;;20.18;29.02;94094.66;6161960;23;20222;-91
2024/03/25 08:01:19;;;;;;;2.53;1.20;;;;;;;20.55;28.73;94091.72;6186926;23;20071;-88
2024/03/25 08:03:45;;;;;;;2.75;1.25;;;;;;;20.05;29.58;94088.09;6162492;23;20082;-88
2024/03/25 08:06:10;;;;;;;1.80;1.30;;;;;;;19.66;29.58;94088.53;6186975;23;20008;-87
2024/03/25 08:13:26;;;;;;;1.98;1.10;;;;;;;18.70;30.90;94072.94;6205219;22;20324;-87
2024/03/25 08:15:52;;;;;;;2.78;1.05;;;;;;;19.65;29.96;94073.78;6162300;23;20017;-87
2024/03/25 08:18:17;;;;;;;2.47;1.20;;;;;;;20.74;27.23;94068.19;6161932;23;20012;-87
2024/03/25 08:20:43;;;;;;;4.28;1.30;;;;;;;19.03;29.08;94063.09;6187017;23;20020;-87
2024/03/25 08:25:33;;;;;;;2.65;1.25;;;;;;;17.65;32.67;94060.34;6179559;23;20047;-88
2024/03/25 08:27:59;;;;;;;3.33;1.40;;;;;;;17.48;31.82;94043.91;6161582;23;20052;-87
2024/03/25 08:30:25;;;;;;;2.10;1.50;;;;;;;17.77;33.06;94039.94;6186645;23;20008;-88
2024/03/25 08:32:53;;;;;;;3.15;1.45;;;;;;;17.27;34.24;94030.56;6139000;23;20008;-88
2024/03/25 08:37:44;;;;;;;2.17;1.50;;;;;;;17.96;31.58;94040.38;6205769;22;20063;-88
2024/03/25 08:40:10;;;;;;;2.58;1.27;;;;;;;17.62;32.60;94033.75;6137979;23;20008;-88
2024/03/25 08:42:35;;;;;;;2.50;1.20;;;;;;;17.12;32.04;94022.53;6187394;23;20005;-88
2024/03/25 08:45:01;;;;;;;2.70;1.20;;;;;;;17.31;33.41;94022.97;6187963;23;20007;-87
2024/03/25 08:57:40;;;;;;;3.38;1.20;;;;;;;13.03;37.47;93988.75;6206248;22;20027;-88
2024/03/25 09:00:10;;;;;;;1.80;1.10;;;;;;;12.96;40.38;94009.72;6187403;23;20013;-88
2024/03/25 09:02:38;;;;;;;3.05;1.02;;;;;;;13.09;39.02;93993.88;6163511;23;20091;-87
2024/03/25 09:05:05;;;;;;;2.15;1.13;;;;;;;12.82;41.00;93980.41;6187147;23;20081;-88
2024/03/25 09:07:31;;;;;;;2.55;1.45;;;;;;;12.68;40.20;93982.41;6161420;23;20012;-88
2024/03/25 09:12:43;;;;;;;3.15;1.20;;;;;;;12.68;42.03;93982.41;6213714;23;20075;-88
2024/03/25 09:15:12;;;;;;;2.50;1.20;;;;;;;12.46;42.00;93984.66;6162366;23;20016;-89
2024/03/25 09:17:38;;;;;;;2.72;1.00;;;;;;;12.88;41.45;93971.69;6163244;23;20024;-87
2024/03/25 09:28:25;;;;;;;2.28;1.40;;;;;;;12.65;42.24;93945.50;6210255;23;20048;-88
2024/03/25 09:30:50;;;;;;;4.07;1.50;;;;;;;12.73;42.18;93950.41;6188059;23;20008;-88
2024/03/25 09:33:16;;;;;;;2.90;1.60;;;;;;;12.56;43.65;93962.47;6161503;23;20015;-89
2024/03/25 09:43:25;;;;;;;2.95;1.42;;;;;;;11.55;44.16;93952.31;6201066;22;20095;-88
2024/03/25 09:45:54;;;;;;;3.30;1.73;;;;;;;11.58;45.26;93949.28;6187852;23;20043;-88
2024/03/25 09:48:21;;;;;;;2.97;1.25;;;;;;;11.21;43.70;93946.59;6138594;23;20016;-88
2024/03/25 09:53:14;;;;;;;3.40;1.40;;;;;;;11.22;47.36;93942.97;6210520;23;20103;-89
2024/03/25 09:58:06;;;;;;;3.42;1.50;;;;;;;11.38;45.37;93920.03;6161756;23;20025;-88
2024/03/25 10:00:31;;;;;;;2.35;1.23;;;;;;;11.69;44.80;93932.13;6157285;23;20009;-87
2024/03/25 10:02:57;;;;;;;2.30;1.25;;;;;;;10.91;44.69;93926.41;6133009;23;20013;-88
2024/03/25 10:05:26;;;;;;;4.05;1.23;;;;;;;11.24;43.23;93921.97;6157018;23;20013;-88
2024/03/25 10:07:51;;;;;;;1.65;1.00;;;;;;;11.12;44.16;93933.06;6157203;23;20005;-88
2024/03/25 10:10:23;;;;;;;3.63;1.10;;;;;;;10.59;46.43;93917.81;6127813;22;20020;-88
2024/03/25 10:12:49;;;;;;;2.65;1.13;;;;;;;10.59;44.65;93920.41;6157971;23;20012;-88
2024/03/25 10:15:17;;;;;;;2.80;1.17;;;;;;;10.88;41.79;93921.63;6157614;23;20005;-87
2024/03/25 10:30:36;;;;;;;4.05;1.10;;;;;;;11.27;41.11;93890.28;6204683;23;20024;-88
2024/03/25 10:38:49;;;;;;;2.40;1.00;;;;;;;11.55;42.59;93864.56;6189380;23;20270;-88
2024/03/25 10:41:20;;;;;;;4.13;1.05;;;;;;;11.52;41.33;93867.63;6188374;23;20124;-88
2024/03/25 10:43:47;;;;;;;2.67;0.90;;;;;;;12.15;42.79;93854.50;6187382;23;20126;-88
2024/03/25 10:46:22;;;;;;;1.40;0.93;;;;;;;12.56;39.53;93853.72;6163477;23;20017;-88
2024/03/25 10:49:14;;;;;;;3.30;0.80;;;;;;;12.62;40.18;93862.47;6187164;23;20009;-88
2024/03/25 10:51:44;;;;;;;1.67;1.13;;;;;;;12.11;41.31;93851.56;6186054;23;19997;-87
2024/03/25 10:54:11;;;;;;;2.33;0.90;;;;;;;11.13;41.64;93850.56;6186867;23;20067;-87
2024/03/25 10:56:36;;;;;;;3.15;0.90;;;;;;;12.28;39.41;93838.69;6186716;23;20015;-88
2024/03/25 10:59:02;;;;;;;2.47;0.90;;;;;;;12.18;37.99;93838.41;6160361;23;20080;-87
2024/03/25 11:01:30;;;;;;;1.20;0.80;;;;;;;12.61;38.14;93846.03;6137094;23;20063;-88
2024/03/25 11:03:56;;;;;;;1.10;0.70;;;;;;;12.38;39.33;93838.94;6186637;23;20019;-88
2024/03/25 11:06:22;;;;;;;3.17;0.95;;;;;;;13.13;38.04;93834.19;6186893;23;20088;-89
2024/03/25 12:27:47;;;;;;;1.30;1.20;;;;;;;12.72;37.99;93669.69;6212651;23;20036;-88
2024/03/25 12:30:13;;;;;;;2.08;1.20;;;;;;;13.13;37.37;93667.13;6188867;23;20011;-89
2024/03/25 12:32:45;;;;;;;2.33;1.10;;;;;;;13.15;36.16;93652.81;6188424;23;20015;-89
2024/03/25 12:35:13;;;;;;;1.85;1.10;;;;;;;12.40;36.33;93666.66;6163069;23;20012;-89
2024/03/25 12:40:10;;;;;;;2.03;1.00;;;;;;;12.50;38.52;93656.44;6212775;22;20019;-89
2024/03/25 12:42:36;;;;;;;1.50;1.10;;;;;;;12.75;37.60;93644.97;6188775;23;20008;-89
2024/03/25 12:45:03;;;;;;;2.60;1.20;;;;;;;13.19;36.02;93633.03;6162190;23;20005;-87
2024/03/25 12:47:30;;;;;;;2.53;1.10;;;;;;;13.41;36.60;93641.06;6187676;23;20008;-88
2024/03/25 12:49:58;;;;;;;2.13;1.10;;;;;;;13.89;34.85;93615.47;6188399;23;20004;-88
2024/03/25 12:52:23;;;;;;;1.45;1.00;;;;;;;13.44;35.31;93608.44;6139697;23;20012;-88
2024/03/25 12:54:49;;;;;;;1.85;1.30;;;;;;;12.24;37.67;93608.13;6188311;23;20031;-88
2024/03/25 12:57:14;;;;;;;2.08;1.17;;;;;;;12.80;37.61;93590.28;6163784;23;20016;-88
2024/03/25 13:02:09;;;;;;;1.60;1.23;;;;;;;13.35;37.36;93594.22;6241565;22;20046;-89
2024/03/25 13:04:39;;;;;;;1.50;1.30;;;;;;;13.40;37.39;93596.88;6193910;23;20022;-89
2024/03/25 13:07:05;;;;;;;1.30;1.10;;;;;;;12.91;38.16;93592.84;6193921;23;20004;-89
2024/03/25 13:09:34;;;;;;;2.42;1.10;;;;;;;13.61;36.40;93572.72;6218274;23;20008;-88
2024/03/25 13:12:00;;;;;;;1.83;1.27;;;;;;;12.95;37.63;93568.91;6193362;23;20004;-89
2024/03/25 13:14:29;;;;;;;3.15;1.45;;;;;;;12.67;37.90;93560.03;6217901;23;20039;-88
2024/03/25 13:16:55;;;;;;;1.63;1.23;;;;;;;13.04;38.34;93541.41;6218613;23;20040;-89
2024/03/25 13:19:22;;;;;;;1.40;1.30;;;;;;;13.93;36.50;93556.47;6218609;23;20019;-88
2024/03/25 13:29:23;;;;;;;1.73;1.27;;;;;;;14.11;35.13;93536.31;6241061;22;20035;-89
2024/03/25 13:31:49;;;;;;;3.08;1.10;;;;;;;14.45;35.63;93529.22;6217982;23;20004;-88
2024/03/25 13:36:40;;;;;;;1.77;1.00;;;;;;;13.64;35.96;93519.19;6240725;22;20039;-88
2024/03/25 13:39:05;;;;;;;1.45;0.90;;;;;;;13.77;35.32;93513.66;6191774;23;20020;-88
2024/03/25 13:41:33;;;;;;;2.80;0.90;;;;;;;13.67;37.05;93516.91;6216997;23;20083;-87
2024/03/25 13:44:00;;;;;;;1.30;1.00;;;;;;;13.88;35.82;93507.53;6216842;23;20000;-89
2024/03/25 13:46:25;;;;;;;1.75;1.00;;;;;;;13.94;37.36;93503.19;6192248;23;20043;-88
2024/03/25 13:48:51;;;;;;;1.10;1.00;;;;;;;13.95;37.76;93496.91;6192056;23;20012;-88
2024/03/25 13:51:17;;;;;;;2.20;0.95;;;;;;;13.84;34.57;93496.00;6167449;23;20016;-89
2024/03/25 13:53:43;;;;;;;1.80;1.05;;;;;;;13.34;35.40;93496.78;6191971;23;20023;-87
2024/03/25 13:56:10;;;;;;;2.50;1.00;;;;;;;13.88;35.26;93488.47;6191069;23;20008;-90
2024/03/25 13:58:36;;;;;;;0.95;0.90;;;;;;;13.25;35.86;93485.91;6191883;23;20016;-88
2024/03/25 15:22:44;;;;;;;0.80;0.60;;;;;;;13.88;32.70;93358.59;6181313;22;20021;-87
2024/03/25 15:25:10;;;;;;;1.25;0.45;;;;;;;14.20;33.92;93357.09;6131661;23;20017;-87
2024/03/25 15:27:36;;;;;;;0.60;0.60;;;;;;;14.06;33.63;93354.84;6156641;23;20128;-87
